sensor_id;sensor_type;location;lat;lon;timestamp;P1;durP1;ratioP1;P2;durP2;ratioP2
45314;SDS011;31051;51.540;5.852;2023-04-15T00:01:05;6.3;;;3.6;;
45314;SDS011;31051;51.540;5.852;2023-04-15T00:14:04;6.1;;;3.7;;
45314;SDS011;31051;51.540;5.852;2023-04-15T00:27:04;6.2;;;3.7;;
45314;SDS011;31051;51.540;5.852;2023-04-15T00:40:03;7.1;;;4.2;;
45314;SDS011;31051;51.540;5.852;2023-04-15T00:53:02;7.3;;;4.6;;
45314;SDS011;31051;51.540;5.852;2023-04-15T01:06:01;6.0;;;4.5;;
45314;SDS011;31051;51.540;5.852;2023-04-15T01:19:00;5.9;;;4.4;;
45314;SDS011;31051;51.540;5.852;2023-04-15T01:32:00;5.8;;;4.4;;
45314;SDS011;31051;51.540;5.852;2023-04-15T01:44:59;6.1;;;4.5;;
45314;SDS011;31051;51.540;5.852;2023-04-15T01:57:58;7.3;;;5.5;;
45314;SDS011;31051;51.540;5.852;2023-04-15T02:10:57;9.2;;;7.1;;
45314;SDS011;31051;51.540;5.852;2023-04-15T02:23:57;10.3;;;6.9;;
45314;SDS011;31051;51.540;5.852;2023-04-15T02:36:56;7.4;;;6.2;;
45314;SDS011;31051;51.540;5.852;2023-04-15T02:49:55;8.3;;;6.5;;
45314;SDS011;31051;51.540;5.852;2023-04-15T03:02:54;7.2;;;6.2;;
45314;SDS011;31051;51.540;5.852;2023-04-15T03:15:53;9.0;;;6.6;;
45314;SDS011;31051;51.540;5.852;2023-04-15T03:28:53;9.7;;;6.9;;
45314;SDS011;31051;51.540;5.852;2023-04-15T03:41:52;11.8;;;7.6;;
45314;SDS011;31051;51.540;5.852;2023-04-15T03:54:51;11.8;;;8.3;;
45314;SDS011;31051;51.540;5.852;2023-04-15T04:07:50;13.0;;;8.3;;
45314;SDS011;31051;51.540;5.852;2023-04-15T04:20:49;13.6;;;8.3;;
45314;SDS011;31051;51.540;5.852;2023-04-15T04:33:49;9.6;;;8.4;;
45314;SDS011;31051;51.540;5.852;2023-04-15T04:46:48;10.2;;;9.1;;
45314;SDS011;31051;51.540;5.852;2023-04-15T04:59:47;36.0;;;11.3;;
45314;SDS011;31051;51.540;5.852;2023-04-15T05:12:46;10.2;;;9.3;;
45314;SDS011;31051;51.540;5.852;2023-04-15T05:25:46;16.7;;;9.8;;
45314;SDS011;31051;51.540;5.852;2023-04-15T05:38:45;9.8;;;8.8;;
45314;SDS011;31051;51.540;5.852;2023-04-15T05:51:44;10.5;;;9.6;;
45314;SDS011;31051;51.540;5.852;2023-04-15T06:04:43;9.6;;;8.8;;
45314;SDS011;31051;51.540;5.852;2023-04-15T06:17:43;11.6;;;9.8;;
45314;SDS011;31051;51.540;5.852;2023-04-15T06:30:42;10.8;;;9.8;;
45314;SDS011;31051;51.540;5.852;2023-04-15T06:43:41;10.4;;;9.2;;
45314;SDS011;31051;51.540;5.852;2023-04-15T06:56:40;10.7;;;9.4;;
45314;SDS011;31051;51.540;5.852;2023-04-15T07:09:40;13.1;;;9.7;;
45314;SDS011;31051;51.540;5.852;2023-04-15T07:22:39;10.9;;;9.0;;
45314;SDS011;31051;51.540;5.852;2023-04-15T07:35:38;10.7;;;8.7;;
45314;SDS011;31051;51.540;5.852;2023-04-15T07:48:37;9.9;;;8.7;;
45314;SDS011;31051;51.540;5.852;2023-04-15T08:01:37;8.9;;;8.0;;
45314;SDS011;31051;51.540;5.852;2023-04-15T08:14:36;8.3;;;7.2;;
45314;SDS011;31051;51.540;5.852;2023-04-15T08:27:35;6.8;;;6.2;;
45314;SDS011;31051;51.540;5.852;2023-04-15T08:40:35;6.3;;;5.7;;
45314;SDS011;31051;51.540;5.852;2023-04-15T08:53:34;10.4;;;6.0;;
45314;SDS011;31051;51.540;5.852;2023-04-15T09:06:33;6.8;;;6.2;;
45314;SDS011;31051;51.540;5.852;2023-04-15T09:19:33;5.4;;;4.8;;
45314;SDS011;31051;51.540;5.852;2023-04-15T09:32:32;4.4;;;3.9;;
45314;SDS011;31051;51.540;5.852;2023-04-15T09:45:31;4.7;;;4.1;;
45314;SDS011;31051;51.540;5.852;2023-04-15T09:58:31;4.1;;;3.8;;
45314;SDS011;31051;51.540;5.852;2023-04-15T10:11:30;4.8;;;4.2;;
45314;SDS011;31051;51.540;5.852;2023-04-15T10:24:29;4.0;;;3.7;;
45314;SDS011;31051;51.540;5.852;2023-04-15T10:37:29;4.2;;;3.6;;
45314;SDS011;31051;51.540;5.852;2023-04-15T10:50:28;3.4;;;3.0;;
45314;SDS011;31051;51.540;5.852;2023-04-15T11:03:27;3.3;;;3.0;;
45314;SDS011;31051;51.540;5.852;2023-04-15T11:16:27;3.6;;;3.3;;
45314;SDS011;31051;51.540;5.852;2023-04-15T11:29:26;4.0;;;3.5;;
45314;SDS011;31051;51.540;5.852;2023-04-15T11:42:25;3.7;;;3.0;;
45314;SDS011;31051;51.540;5.852;2023-04-15T11:55:24;3.4;;;2.8;;
45314;SDS011;31051;51.540;5.852;2023-04-15T12:08:13;3.7;;;2.8;;
45314;SDS011;31051;51.540;5.852;2023-04-15T12:21:12;3.3;;;2.6;;
45314;SDS011;31051;51.540;5.852;2023-04-15T12:34:12;2.8;;;2.3;;
45314;SDS011;31051;51.540;5.852;2023-04-15T12:47:11;2.5;;;2.0;;
45314;SDS011;31051;51.540;5.852;2023-04-15T13:00:11;2.7;;;1.9;;
45314;SDS011;31051;51.540;5.852;2023-04-15T13:13:10;2.3;;;1.6;;
45314;SDS011;31051;51.540;5.852;2023-04-15T13:26:09;3.5;;;1.6;;
45314;SDS011;31051;51.540;5.852;2023-04-15T13:39:09;1.8;;;1.2;;
45314;SDS011;31051;51.540;5.852;2023-04-15T13:52:08;2.1;;;1.6;;
45314;SDS011;31051;51.540;5.852;2023-04-15T14:05:07;2.2;;;1.9;;
45314;SDS011;31051;51.540;5.852;2023-04-15T14:18:07;2.6;;;1.7;;
45314;SDS011;31051;51.540;5.852;2023-04-15T14:31:06;2.8;;;1.4;;
45314;SDS011;31051;51.540;5.852;2023-04-15T14:44:06;1.6;;;1.2;;
45314;SDS011;31051;51.540;5.852;2023-04-15T14:57:05;2.4;;;1.3;;
45314;SDS011;31051;51.540;5.852;2023-04-15T15:10:04;2.2;;;1.1;;
45314;SDS011;31051;51.540;5.852;2023-04-15T15:23:04;3.5;;;0.8;;
45314;SDS011;31051;51.540;5.852;2023-04-15T15:36:03;2.5;;;1.1;;
45314;SDS011;31051;51.540;5.852;2023-04-15T15:49:02;2.1;;;1.1;;
45314;SDS011;31051;51.540;5.852;2023-04-15T16:02:02;2.7;;;1.4;;
45314;SDS011;31051;51.540;5.852;2023-04-15T16:15:01;3.0;;;1.6;;
45314;SDS011;31051;51.540;5.852;2023-04-15T16:28:00;2.8;;;1.6;;
45314;SDS011;31051;51.540;5.852;2023-04-15T16:40:59;5.0;;;2.2;;
45314;SDS011;31051;51.540;5.852;2023-04-15T16:53:59;4.4;;;2.0;;
45314;SDS011;31051;51.540;5.852;2023-04-15T17:06:58;3.7;;;1.9;;
45314;SDS011;31051;51.540;5.852;2023-04-15T17:19:57;5.9;;;1.9;;
45314;SDS011;31051;51.540;5.852;2023-04-15T17:32:57;4.6;;;1.7;;
45314;SDS011;31051;51.540;5.852;2023-04-15T17:45:56;5.9;;;2.1;;
45314;SDS011;31051;51.540;5.852;2023-04-15T17:58:55;6.2;;;1.7;;
45314;SDS011;31051;51.540;5.852;2023-04-15T18:11:55;6.4;;;1.9;;
45314;SDS011;31051;51.540;5.852;2023-04-15T18:24:54;5.1;;;1.7;;
45314;SDS011;31051;51.540;5.852;2023-04-15T18:37:53;7.7;;;2.2;;
45314;SDS011;31051;51.540;5.852;2023-04-15T18:50:52;6.1;;;2.0;;
45314;SDS011;31051;51.540;5.852;2023-04-15T19:03:52;6.4;;;2.2;;
45314;SDS011;31051;51.540;5.852;2023-04-15T19:16:51;6.5;;;2.1;;
45314;SDS011;31051;51.540;5.852;2023-04-15T19:29:50;7.4;;;2.1;;
45314;SDS011;31051;51.540;5.852;2023-04-15T19:42:50;7.0;;;2.2;;
45314;SDS011;31051;51.540;5.852;2023-04-15T19:55:49;7.3;;;2.1;;
45314;SDS011;31051;51.540;5.852;2023-04-15T20:08:48;6.3;;;1.9;;
45314;SDS011;31051;51.540;5.852;2023-04-15T20:21:47;5.7;;;1.8;;
45314;SDS011;31051;51.540;5.852;2023-04-15T20:34:47;5.8;;;2.0;;
45314;SDS011;31051;51.540;5.852;2023-04-15T20:47:46;6.4;;;2.1;;
45314;SDS011;31051;51.540;5.852;2023-04-15T21:00:45;6.8;;;2.2;;
45314;SDS011;31051;51.540;5.852;2023-04-15T21:13:44;6.3;;;2.2;;
45314;SDS011;31051;51.540;5.852;2023-04-15T21:26:44;7.5;;;2.4;;
45314;SDS011;31051;51.540;5.852;2023-04-15T21:39:43;6.8;;;2.1;;
45314;SDS011;31051;51.540;5.852;2023-04-15T21:52:42;7.1;;;2.4;;
45314;SDS011;31051;51.540;5.852;2023-04-15T22:05:41;8.7;;;2.4;;
45314;SDS011;31051;51.540;5.852;2023-04-15T22:18:41;6.5;;;2.2;;
45314;SDS011;31051;51.540;5.852;2023-04-15T22:31:40;7.4;;;2.1;;
45314;SDS011;31051;51.540;5.852;2023-04-15T22:44:39;6.8;;;2.2;;
45314;SDS011;31051;51.540;5.852;2023-04-15T22:57:39;5.6;;;2.0;;
45314;SDS011;31051;51.540;5.852;2023-04-15T23:10:38;6.0;;;2.4;;
45314;SDS011;31051;51.540;5.852;2023-04-15T23:23:37;6.3;;;2.5;;
45314;SDS011;31051;51.540;5.852;2023-04-15T23:36:36;6.0;;;2.7;;
45314;SDS011;31051;51.540;5.852;2023-04-15T23:49:36;7.5;;;3.0;;
